sensor_id;sensor_type;location;lat;lon;timestamp;P1;durP1;ratioP1;P2;durP2;ratioP2
60060;SDS011;45933;51.336;12.612;2023-12-29T00:01:43;1.67;;;1.30;;
60060;SDS011;45933;51.336;12.612;2023-12-29T00:04:09;2.17;;;1.50;;
60060;SDS011;45933;51.336;12.612;2023-12-29T00:06:37;3.80;;;1.67;;
60060;SDS011;45933;51.336;12.612;2023-12-29T00:09:03;2.17;;;1.43;;
60060;SDS011;45933;51.336;12.612;2023-12-29T00:11:29;2.70;;;1.33;;
60060;SDS011;45933;51.336;12.612;2023-12-29T00:13:54;1.93;;;1.40;;
60060;SDS011;45933;51.336;12.612;2023-12-29T00:16:19;2.03;;;1.20;;
60060;SDS011;45933;51.336;12.612;2023-12-29T00:18:44;1.73;;;1.57;;
60060;SDS011;45933;51.336;12.612;2023-12-29T00:21:10;2.50;;;1.27;;
60060;SDS011;45933;51.336;12.612;2023-12-29T00:23:35;3.37;;;1.40;;
60060;SDS011;45933;51.336;12.612;2023-12-29T00:26:00;2.23;;;1.27;;
60060;SDS011;45933;51.336;12.612;2023-12-29T00:28:26;1.93;;;1.40;;
60060;SDS011;45933;51.336;12.612;2023-12-29T00:30:51;2.50;;;1.47;;
60060;SDS011;45933;51.336;12.612;2023-12-29T00:33:16;3.60;;;1.60;;
60060;SDS011;45933;51.336;12.612;2023-12-29T00:35:42;2.03;;;1.23;;
60060;SDS011;45933;51.336;12.612;2023-12-29T00:38:07;2.40;;;1.50;;
60060;SDS011;45933;51.336;12.612;2023-12-29T00:40:33;2.77;;;1.60;;
60060;SDS011;45933;51.336;12.612;2023-12-29T00:42:59;2.17;;;1.33;;
60060;SDS011;45933;51.336;12.612;2023-12-29T00:45:25;1.57;;;1.23;;
60060;SDS011;45933;51.336;12.612;2023-12-29T00:47:51;2.33;;;1.20;;
60060;SDS011;45933;51.336;12.612;2023-12-29T00:50:16;1.90;;;1.10;;
60060;SDS011;45933;51.336;12.612;2023-12-29T00:52:42;1.63;;;1.30;;
60060;SDS011;45933;51.336;12.612;2023-12-29T00:55:08;3.10;;;1.30;;
60060;SDS011;45933;51.336;12.612;2023-12-29T00:57:33;1.27;;;1.17;;
60060;SDS011;45933;51.336;12.612;2023-12-29T00:59:59;2.03;;;1.10;;
60060;SDS011;45933;51.336;12.612;2023-12-29T01:02:26;2.07;;;1.20;;
60060;SDS011;45933;51.336;12.612;2023-12-29T01:04:51;2.33;;;1.30;;
60060;SDS011;45933;51.336;12.612;2023-12-29T01:07:16;2.73;;;1.30;;
60060;SDS011;45933;51.336;12.612;2023-12-29T01:09:41;1.73;;;1.03;;
60060;SDS011;45933;51.336;12.612;2023-12-29T01:12:07;1.03;;;0.93;;
60060;SDS011;45933;51.336;12.612;2023-12-29T01:14:32;1.90;;;1.27;;
60060;SDS011;45933;51.336;12.612;2023-12-29T01:16:57;1.63;;;1.10;;
60060;SDS011;45933;51.336;12.612;2023-12-29T01:19:24;1.33;;;1.20;;
60060;SDS011;45933;51.336;12.612;2023-12-29T01:21:49;2.00;;;1.00;;
60060;SDS011;45933;51.336;12.612;2023-12-29T01:24:14;1.90;;;1.20;;
60060;SDS011;45933;51.336;12.612;2023-12-29T01:26:40;2.43;;;1.37;;
60060;SDS011;45933;51.336;12.612;2023-12-29T01:29:05;1.83;;;1.10;;
60060;SDS011;45933;51.336;12.612;2023-12-29T01:31:31;1.27;;;0.90;;
60060;SDS011;45933;51.336;12.612;2023-12-29T01:33:57;1.70;;;0.80;;
60060;SDS011;45933;51.336;12.612;2023-12-29T01:36:22;2.37;;;1.30;;
60060;SDS011;45933;51.336;12.612;2023-12-29T01:38:47;2.43;;;1.20;;
60060;SDS011;45933;51.336;12.612;2023-12-29T01:41:13;2.17;;;1.20;;
60060;SDS011;45933;51.336;12.612;2023-12-29T01:46:45;1.30;;;1.20;;
60060;SDS011;45933;51.336;12.612;2023-12-29T01:49:11;1.90;;;1.13;;
60060;SDS011;45933;51.336;12.612;2023-12-29T01:51:40;1.60;;;1.20;;
60060;SDS011;45933;51.336;12.612;2023-12-29T01:54:07;2.57;;;1.23;;
60060;SDS011;45933;51.336;12.612;2023-12-29T01:56:33;2.00;;;1.00;;
60060;SDS011;45933;51.336;12.612;2023-12-29T01:58:58;1.53;;;1.00;;
60060;SDS011;45933;51.336;12.612;2023-12-29T02:01:24;1.63;;;1.13;;
60060;SDS011;45933;51.336;12.612;2023-12-29T02:03:49;2.33;;;1.10;;
60060;SDS011;45933;51.336;12.612;2023-12-29T02:06:14;1.13;;;1.03;;
60060;SDS011;45933;51.336;12.612;2023-12-29T02:08:42;1.67;;;0.90;;
60060;SDS011;45933;51.336;12.612;2023-12-29T02:11:08;2.03;;;1.00;;
60060;SDS011;45933;51.336;12.612;2023-12-29T02:13:33;1.13;;;0.73;;
60060;SDS011;45933;51.336;12.612;2023-12-29T02:16:00;2.20;;;1.10;;
60060;SDS011;45933;51.336;12.612;2023-12-29T02:18:32;1.13;;;0.90;;
60060;SDS011;45933;51.336;12.612;2023-12-29T02:21:01;0.90;;;0.80;;
60060;SDS011;45933;51.336;12.612;2023-12-29T02:23:28;1.17;;;1.00;;
60060;SDS011;45933;51.336;12.612;2023-12-29T02:25:53;1.20;;;0.90;;
60060;SDS011;45933;51.336;12.612;2023-12-29T02:28:23;1.60;;;1.10;;
60060;SDS011;45933;51.336;12.612;2023-12-29T02:30:53;1.27;;;1.00;;
60060;SDS011;45933;51.336;12.612;2023-12-29T02:33:43;2.83;;;1.20;;
60060;SDS011;45933;51.336;12.612;2023-12-29T02:36:10;2.93;;;1.20;;
60060;SDS011;45933;51.336;12.612;2023-12-29T02:38:38;0.90;;;0.80;;
60060;SDS011;45933;51.336;12.612;2023-12-29T02:41:05;0.87;;;0.70;;
60060;SDS011;45933;51.336;12.612;2023-12-29T02:43:31;0.70;;;0.70;;
60060;SDS011;45933;51.336;12.612;2023-12-29T02:45:57;1.90;;;0.83;;
60060;SDS011;45933;51.336;12.612;2023-12-29T02:48:22;1.37;;;0.80;;
60060;SDS011;45933;51.336;12.612;2023-12-29T02:50:48;0.93;;;0.80;;
60060;SDS011;45933;51.336;12.612;2023-12-29T02:53:13;1.23;;;0.60;;
60060;SDS011;45933;51.336;12.612;2023-12-29T02:55:38;1.13;;;0.70;;
60060;SDS011;45933;51.336;12.612;2023-12-29T02:58:04;0.90;;;0.80;;
60060;SDS011;45933;51.336;12.612;2023-12-29T03:00:29;1.10;;;0.70;;
60060;SDS011;45933;51.336;12.612;2023-12-29T03:02:54;1.30;;;0.83;;
60060;SDS011;45933;51.336;12.612;2023-12-29T03:05:20;0.90;;;0.60;;
60060;SDS011;45933;51.336;12.612;2023-12-29T03:07:45;0.67;;;0.67;;
60060;SDS011;45933;51.336;12.612;2023-12-29T03:10:10;0.93;;;0.77;;
60060;SDS011;45933;51.336;12.612;2023-12-29T03:12:36;1.50;;;0.70;;
60060;SDS011;45933;51.336;12.612;2023-12-29T03:15:01;1.67;;;0.67;;
60060;SDS011;45933;51.336;12.612;2023-12-29T03:17:26;0.73;;;0.70;;
60060;SDS011;45933;51.336;12.612;2023-12-29T03:19:52;2.00;;;0.60;;
60060;SDS011;45933;51.336;12.612;2023-12-29T03:22:17;1.23;;;0.70;;
60060;SDS011;45933;51.336;12.612;2023-12-29T03:24:43;1.70;;;0.80;;
60060;SDS011;45933;51.336;12.612;2023-12-29T03:27:08;1.47;;;0.90;;
60060;SDS011;45933;51.336;12.612;2023-12-29T03:29:34;0.63;;;0.63;;
60060;SDS011;45933;51.336;12.612;2023-12-29T03:31:59;0.77;;;0.60;;
60060;SDS011;45933;51.336;12.612;2023-12-29T03:34:24;1.77;;;0.80;;
60060;SDS011;45933;51.336;12.612;2023-12-29T03:36:50;0.60;;;0.60;;
60060;SDS011;45933;51.336;12.612;2023-12-29T03:39:15;0.47;;;0.47;;
60060;SDS011;45933;51.336;12.612;2023-12-29T03:41:40;1.57;;;0.90;;
60060;SDS011;45933;51.336;12.612;2023-12-29T03:44:06;2.13;;;1.30;;
60060;SDS011;45933;51.336;12.612;2023-12-29T03:46:31;1.13;;;0.70;;
60060;SDS011;45933;51.336;12.612;2023-12-29T03:48:57;0.60;;;0.60;;
60060;SDS011;45933;51.336;12.612;2023-12-29T03:51:23;0.80;;;0.60;;
60060;SDS011;45933;51.336;12.612;2023-12-29T03:53:48;1.07;;;0.60;;
60060;SDS011;45933;51.336;12.612;2023-12-29T03:56:15;1.17;;;0.70;;
60060;SDS011;45933;51.336;12.612;2023-12-29T03:58:41;0.80;;;0.63;;
60060;SDS011;45933;51.336;12.612;2023-12-29T04:01:10;1.00;;;0.80;;
60060;SDS011;45933;51.336;12.612;2023-12-29T04:03:40;0.93;;;0.67;;
60060;SDS011;45933;51.336;12.612;2023-12-29T04:06:06;1.07;;;0.60;;
60060;SDS011;45933;51.336;12.612;2023-12-29T04:08:32;0.63;;;0.50;;
60060;SDS011;45933;51.336;12.612;2023-12-29T04:10:58;1.77;;;0.70;;
60060;SDS011;45933;51.336;12.612;2023-12-29T04:13:23;1.27;;;0.60;;
60060;SDS011;45933;51.336;12.612;2023-12-29T04:15:48;2.43;;;1.20;;
60060;SDS011;45933;51.336;12.612;2023-12-29T04:18:14;1.63;;;1.00;;
60060;SDS011;45933;51.336;12.612;2023-12-29T04:20:39;1.67;;;0.90;;
60060;SDS011;45933;51.336;12.612;2023-12-29T04:23:05;1.57;;;1.07;;
60060;SDS011;45933;51.336;12.612;2023-12-29T04:25:32;2.67;;;0.90;;
60060;SDS011;45933;51.336;12.612;2023-12-29T04:27:57;1.60;;;0.70;;
60060;SDS011;45933;51.336;12.612;2023-12-29T04:30:23;0.70;;;0.70;;
60060;SDS011;45933;51.336;12.612;2023-12-29T04:32:49;0.87;;;0.80;;
60060;SDS011;45933;51.336;12.612;2023-12-29T04:35:14;2.03;;;1.00;;
60060;SDS011;45933;51.336;12.612;2023-12-29T04:37:40;3.07;;;1.03;;
60060;SDS011;45933;51.336;12.612;2023-12-29T04:40:09;2.90;;;0.87;;
60060;SDS011;45933;51.336;12.612;2023-12-29T04:42:35;1.90;;;0.80;;
60060;SDS011;45933;51.336;12.612;2023-12-29T04:45:00;1.00;;;0.90;;
60060;SDS011;45933;51.336;12.612;2023-12-29T04:47:25;1.07;;;0.73;;
60060;SDS011;45933;51.336;12.612;2023-12-29T04:49:51;0.70;;;0.70;;
60060;SDS011;45933;51.336;12.612;2023-12-29T04:52:16;1.23;;;0.90;;
60060;SDS011;45933;51.336;12.612;2023-12-29T04:54:41;1.40;;;0.90;;
60060;SDS011;45933;51.336;12.612;2023-12-29T04:57:06;1.10;;;0.77;;
60060;SDS011;45933;51.336;12.612;2023-12-29T04:59:32;1.63;;;0.70;;
60060;SDS011;45933;51.336;12.612;2023-12-29T05:01:57;0.80;;;0.80;;
60060;SDS011;45933;51.336;12.612;2023-12-29T05:04:22;0.80;;;0.80;;
60060;SDS011;45933;51.336;12.612;2023-12-29T05:06:47;1.10;;;0.90;;
60060;SDS011;45933;51.336;12.612;2023-12-29T05:09:13;1.23;;;1.10;;
60060;SDS011;45933;51.336;12.612;2023-12-29T05:11:38;0.80;;;0.80;;
60060;SDS011;45933;51.336;12.612;2023-12-29T05:14:04;0.83;;;0.80;;
60060;SDS011;45933;51.336;12.612;2023-12-29T05:16:29;1.63;;;1.00;;
60060;SDS011;45933;51.336;12.612;2023-12-29T05:18:55;1.07;;;0.80;;
60060;SDS011;45933;51.336;12.612;2023-12-29T05:21:20;2.30;;;1.00;;
60060;SDS011;45933;51.336;12.612;2023-12-29T05:23:46;1.23;;;0.90;;
60060;SDS011;45933;51.336;12.612;2023-12-29T05:26:13;2.20;;;1.10;;
60060;SDS011;45933;51.336;12.612;2023-12-29T05:28:39;1.10;;;0.97;;
60060;SDS011;45933;51.336;12.612;2023-12-29T05:31:04;1.60;;;1.23;;
60060;SDS011;45933;51.336;12.612;2023-12-29T05:33:30;3.07;;;1.77;;
60060;SDS011;45933;51.336;12.612;2023-12-29T05:35:56;3.90;;;1.40;;
60060;SDS011;45933;51.336;12.612;2023-12-29T05:38:22;1.30;;;1.20;;
60060;SDS011;45933;51.336;12.612;2023-12-29T05:40:47;1.53;;;1.00;;
60060;SDS011;45933;51.336;12.612;2023-12-29T05:43:12;1.40;;;1.10;;
60060;SDS011;45933;51.336;12.612;2023-12-29T05:45:39;1.13;;;1.03;;
60060;SDS011;45933;51.336;12.612;2023-12-29T05:48:05;1.30;;;0.90;;
60060;SDS011;45933;51.336;12.612;2023-12-29T05:50:30;1.77;;;1.10;;
60060;SDS011;45933;51.336;12.612;2023-12-29T05:52:56;2.30;;;1.00;;
60060;SDS011;45933;51.336;12.612;2023-12-29T05:55:21;1.37;;;1.10;;
60060;SDS011;45933;51.336;12.612;2023-12-29T05:57:46;1.07;;;0.97;;
60060;SDS011;45933;51.336;12.612;2023-12-29T06:00:12;2.17;;;1.20;;
60060;SDS011;45933;51.336;12.612;2023-12-29T06:02:40;1.50;;;1.10;;
60060;SDS011;45933;51.336;12.612;2023-12-29T06:05:11;1.80;;;1.20;;
60060;SDS011;45933;51.336;12.612;2023-12-29T06:07:37;3.97;;;0.93;;
60060;SDS011;45933;51.336;12.612;2023-12-29T06:10:02;3.27;;;1.17;;
60060;SDS011;45933;51.336;12.612;2023-12-29T06:12:28;3.13;;;1.00;;
60060;SDS011;45933;51.336;12.612;2023-12-29T06:14:53;1.43;;;1.00;;
60060;SDS011;45933;51.336;12.612;2023-12-29T06:17:19;2.87;;;1.13;;
60060;SDS011;45933;51.336;12.612;2023-12-29T06:19:44;1.80;;;1.30;;
60060;SDS011;45933;51.336;12.612;2023-12-29T06:22:09;2.13;;;1.30;;
60060;SDS011;45933;51.336;12.612;2023-12-29T06:24:36;1.30;;;1.20;;
60060;SDS011;45933;51.336;12.612;2023-12-29T06:27:07;1.20;;;1.10;;
60060;SDS011;45933;51.336;12.612;2023-12-29T06:29:33;1.30;;;1.10;;
60060;SDS011;45933;51.336;12.612;2023-12-29T06:32:01;1.73;;;1.23;;
60060;SDS011;45933;51.336;12.612;2023-12-29T06:34:55;2.93;;;1.20;;
60060;SDS011;45933;51.336;12.612;2023-12-29T06:37:20;1.93;;;1.20;;
60060;SDS011;45933;51.336;12.612;2023-12-29T06:39:48;4.83;;;1.00;;
60060;SDS011;45933;51.336;12.612;2023-12-29T06:42:25;1.20;;;1.10;;
60060;SDS011;45933;51.336;12.612;2023-12-29T06:44:56;2.67;;;1.10;;
60060;SDS011;45933;51.336;12.612;2023-12-29T06:47:22;2.63;;;1.43;;
60060;SDS011;45933;51.336;12.612;2023-12-29T06:49:51;1.27;;;1.00;;
60060;SDS011;45933;51.336;12.612;2023-12-29T06:52:19;2.03;;;1.10;;
60060;SDS011;45933;51.336;12.612;2023-12-29T06:54:44;5.57;;;1.10;;
60060;SDS011;45933;51.336;12.612;2023-12-29T06:57:10;1.53;;;0.90;;
60060;SDS011;45933;51.336;12.612;2023-12-29T06:59:35;1.50;;;1.13;;
60060;SDS011;45933;51.336;12.612;2023-12-29T07:02:00;2.70;;;1.30;;
60060;SDS011;45933;51.336;12.612;2023-12-29T07:04:25;2.00;;;1.10;;
60060;SDS011;45933;51.336;12.612;2023-12-29T07:06:51;1.50;;;0.90;;
60060;SDS011;45933;51.336;12.612;2023-12-29T07:09:16;3.60;;;1.17;;
60060;SDS011;45933;51.336;12.612;2023-12-29T07:11:41;2.47;;;1.00;;
60060;SDS011;45933;51.336;12.612;2023-12-29T07:14:12;3.13;;;1.03;;
60060;SDS011;45933;51.336;12.612;2023-12-29T07:16:37;2.00;;;1.13;;
60060;SDS011;45933;51.336;12.612;2023-12-29T07:19:02;2.20;;;1.10;;
60060;SDS011;45933;51.336;12.612;2023-12-29T07:21:28;3.50;;;1.30;;
60060;SDS011;45933;51.336;12.612;2023-12-29T07:23:53;2.77;;;1.13;;
60060;SDS011;45933;51.336;12.612;2023-12-29T07:26:18;1.67;;;1.00;;
60060;SDS011;45933;51.336;12.612;2023-12-29T07:28:44;2.20;;;1.10;;
60060;SDS011;45933;51.336;12.612;2023-12-29T07:31:09;2.53;;;1.10;;
60060;SDS011;45933;51.336;12.612;2023-12-29T07:33:34;1.70;;;0.90;;
60060;SDS011;45933;51.336;12.612;2023-12-29T07:35:59;2.43;;;1.40;;
60060;SDS011;45933;51.336;12.612;2023-12-29T07:38:25;2.97;;;1.23;;
60060;SDS011;45933;51.336;12.612;2023-12-29T07:40:50;2.00;;;1.27;;
60060;SDS011;45933;51.336;12.612;2023-12-29T07:43:15;1.47;;;0.93;;
60060;SDS011;45933;51.336;12.612;2023-12-29T07:45:40;1.13;;;0.90;;
60060;SDS011;45933;51.336;12.612;2023-12-29T07:48:08;4.57;;;1.30;;
60060;SDS011;45933;51.336;12.612;2023-12-29T07:50:33;2.00;;;1.40;;
60060;SDS011;45933;51.336;12.612;2023-12-29T07:52:58;2.87;;;1.43;;
60060;SDS011;45933;51.336;12.612;2023-12-29T07:55:27;2.07;;;1.10;;
60060;SDS011;45933;51.336;12.612;2023-12-29T07:57:53;3.33;;;1.23;;
60060;SDS011;45933;51.336;12.612;2023-12-29T08:00:18;2.00;;;1.43;;
60060;SDS011;45933;51.336;12.612;2023-12-29T08:02:43;3.77;;;1.10;;
60060;SDS011;45933;51.336;12.612;2023-12-29T08:05:09;2.30;;;1.07;;
60060;SDS011;45933;51.336;12.612;2023-12-29T08:07:35;3.57;;;1.20;;
60060;SDS011;45933;51.336;12.612;2023-12-29T08:10:07;3.50;;;1.53;;
60060;SDS011;45933;51.336;12.612;2023-12-29T08:12:33;2.67;;;1.10;;
60060;SDS011;45933;51.336;12.612;2023-12-29T08:14:59;2.90;;;1.20;;
60060;SDS011;45933;51.336;12.612;2023-12-29T08:17:24;5.30;;;1.53;;
60060;SDS011;45933;51.336;12.612;2023-12-29T08:19:50;4.27;;;1.50;;
60060;SDS011;45933;51.336;12.612;2023-12-29T08:22:15;3.87;;;1.60;;
60060;SDS011;45933;51.336;12.612;2023-12-29T08:24:41;2.57;;;1.13;;
60060;SDS011;45933;51.336;12.612;2023-12-29T08:27:08;3.23;;;1.37;;
60060;SDS011;45933;51.336;12.612;2023-12-29T08:29:35;1.67;;;1.10;;
60060;SDS011;45933;51.336;12.612;2023-12-29T08:32:00;2.87;;;1.00;;
60060;SDS011;45933;51.336;12.612;2023-12-29T08:34:26;8.47;;;2.40;;
60060;SDS011;45933;51.336;12.612;2023-12-29T08:36:52;2.73;;;1.50;;
60060;SDS011;45933;51.336;12.612;2023-12-29T08:39:18;3.37;;;1.27;;
60060;SDS011;45933;51.336;12.612;2023-12-29T08:41:44;1.73;;;1.00;;
60060;SDS011;45933;51.336;12.612;2023-12-29T08:44:09;3.70;;;1.30;;
60060;SDS011;45933;51.336;12.612;2023-12-29T08:46:34;3.03;;;1.30;;
60060;SDS011;45933;51.336;12.612;2023-12-29T08:49:01;2.13;;;1.10;;
60060;SDS011;45933;51.336;12.612;2023-12-29T08:51:26;2.90;;;1.40;;
60060;SDS011;45933;51.336;12.612;2023-12-29T08:53:52;3.20;;;1.20;;
60060;SDS011;45933;51.336;12.612;2023-12-29T08:56:17;2.00;;;1.30;;
60060;SDS011;45933;51.336;12.612;2023-12-29T08:58:42;1.47;;;1.20;;
60060;SDS011;45933;51.336;12.612;2023-12-29T09:01:08;2.60;;;1.20;;
60060;SDS011;45933;51.336;12.612;2023-12-29T09:03:33;3.27;;;1.10;;
60060;SDS011;45933;51.336;12.612;2023-12-29T09:05:58;2.93;;;1.20;;
60060;SDS011;45933;51.336;12.612;2023-12-29T09:08:26;4.03;;;1.10;;
60060;SDS011;45933;51.336;12.612;2023-12-29T09:10:52;3.43;;;1.60;;
60060;SDS011;45933;51.336;12.612;2023-12-29T09:13:17;3.60;;;1.33;;
60060;SDS011;45933;51.336;12.612;2023-12-29T09:15:43;1.80;;;1.30;;
60060;SDS011;45933;51.336;12.612;2023-12-29T09:18:08;3.17;;;1.10;;
60060;SDS011;45933;51.336;12.612;2023-12-29T09:20:35;3.83;;;1.07;;
60060;SDS011;45933;51.336;12.612;2023-12-29T09:23:00;4.60;;;1.50;;
60060;SDS011;45933;51.336;12.612;2023-12-29T09:25:28;4.53;;;1.30;;
60060;SDS011;45933;51.336;12.612;2023-12-29T09:27:53;3.10;;;1.00;;
60060;SDS011;45933;51.336;12.612;2023-12-29T09:30:18;2.72;;;1.30;;
60060;SDS011;45933;51.336;12.612;2023-12-29T09:32:44;4.55;;;1.10;;
60060;SDS011;45933;51.336;12.612;2023-12-29T09:35:09;3.47;;;1.15;;
60060;SDS011;45933;51.336;12.612;2023-12-29T09:37:34;1.75;;;1.08;;
60060;SDS011;45933;51.336;12.612;2023-12-29T09:40:00;4.00;;;1.00;;
60060;SDS011;45933;51.336;12.612;2023-12-29T09:42:25;1.05;;;0.93;;
60060;SDS011;45933;51.336;12.612;2023-12-29T09:44:54;3.30;;;1.13;;
60060;SDS011;45933;51.336;12.612;2023-12-29T09:47:20;3.20;;;1.42;;
60060;SDS011;45933;51.336;12.612;2023-12-29T09:49:52;4.07;;;1.42;;
60060;SDS011;45933;51.336;12.612;2023-12-29T09:52:18;4.35;;;2.15;;
60060;SDS011;45933;51.336;12.612;2023-12-29T09:54:46;5.68;;;2.17;;
60060;SDS011;45933;51.336;12.612;2023-12-29T09:57:13;3.03;;;1.77;;
60060;SDS011;45933;51.336;12.612;2023-12-29T09:59:39;2.53;;;1.27;;
60060;SDS011;45933;51.336;12.612;2023-12-29T10:02:06;2.60;;;1.10;;
60060;SDS011;45933;51.336;12.612;2023-12-29T10:04:37;2.20;;;1.20;;
60060;SDS011;45933;51.336;12.612;2023-12-29T10:07:03;3.30;;;1.25;;
60060;SDS011;45933;51.336;12.612;2023-12-29T10:09:32;1.80;;;0.95;;
60060;SDS011;45933;51.336;12.612;2023-12-29T10:11:59;3.70;;;1.08;;
60060;SDS011;45933;51.336;12.612;2023-12-29T10:14:34;1.60;;;0.90;;
60060;SDS011;45933;51.336;12.612;2023-12-29T10:17:09;1.77;;;1.00;;
60060;SDS011;45933;51.336;12.612;2023-12-29T10:19:50;5.43;;;1.23;;
60060;SDS011;45933;51.336;12.612;2023-12-29T10:22:30;2.55;;;1.00;;
60060;SDS011;45933;51.336;12.612;2023-12-29T10:25:10;3.75;;;1.63;;
60060;SDS011;45933;51.336;12.612;2023-12-29T10:27:36;3.60;;;1.25;;
60060;SDS011;45933;51.336;12.612;2023-12-29T10:30:01;3.58;;;1.38;;
60060;SDS011;45933;51.336;12.612;2023-12-29T10:32:26;4.95;;;1.20;;
60060;SDS011;45933;51.336;12.612;2023-12-29T10:35:07;2.83;;;1.30;;
60060;SDS011;45933;51.336;12.612;2023-12-29T10:37:36;1.70;;;1.30;;
60060;SDS011;45933;51.336;12.612;2023-12-29T10:40:02;4.03;;;1.95;;
60060;SDS011;45933;51.336;12.612;2023-12-29T10:42:28;2.88;;;1.23;;
60060;SDS011;45933;51.336;12.612;2023-12-29T10:45:09;2.35;;;1.23;;
60060;SDS011;45933;51.336;12.612;2023-12-29T10:47:35;3.55;;;1.25;;
60060;SDS011;45933;51.336;12.612;2023-12-29T10:50:01;3.90;;;1.23;;
60060;SDS011;45933;51.336;12.612;2023-12-29T10:52:28;2.10;;;1.20;;
60060;SDS011;45933;51.336;12.612;2023-12-29T10:55:04;1.90;;;0.95;;
60060;SDS011;45933;51.336;12.612;2023-12-29T10:57:30;3.30;;;1.10;;
60060;SDS011;45933;51.336;12.612;2023-12-29T10:59:57;3.30;;;1.30;;
60060;SDS011;45933;51.336;12.612;2023-12-29T11:02:22;5.83;;;1.70;;
60060;SDS011;45933;51.336;12.612;2023-12-29T11:04:48;2.95;;;1.17;;
60060;SDS011;45933;51.336;12.612;2023-12-29T11:07:15;3.78;;;1.75;;
60060;SDS011;45933;51.336;12.612;2023-12-29T11:09:41;2.45;;;1.40;;
60060;SDS011;45933;51.336;12.612;2023-12-29T11:12:07;3.17;;;1.52;;
60060;SDS011;45933;51.336;12.612;2023-12-29T11:14:32;2.17;;;1.30;;
60060;SDS011;45933;51.336;12.612;2023-12-29T11:16:58;4.22;;;1.60;;
60060;SDS011;45933;51.336;12.612;2023-12-29T11:19:25;2.25;;;1.33;;
60060;SDS011;45933;51.336;12.612;2023-12-29T11:21:52;2.05;;;1.30;;
60060;SDS011;45933;51.336;12.612;2023-12-29T11:24:19;4.78;;;1.17;;
60060;SDS011;45933;51.336;12.612;2023-12-29T11:26:44;4.75;;;1.80;;
60060;SDS011;45933;51.336;12.612;2023-12-29T11:29:11;1.50;;;1.20;;
60060;SDS011;45933;51.336;12.612;2023-12-29T11:31:37;2.67;;;1.10;;
60060;SDS011;45933;51.336;12.612;2023-12-29T11:34:05;3.70;;;0.90;;
60060;SDS011;45933;51.336;12.612;2023-12-29T11:36:46;1.23;;;0.88;;
60060;SDS011;45933;51.336;12.612;2023-12-29T11:42:23;1.60;;;0.93;;
60060;SDS011;45933;51.336;12.612;2023-12-29T11:44:55;1.80;;;0.70;;
60060;SDS011;45933;51.336;12.612;2023-12-29T11:47:37;3.25;;;1.38;;
60060;SDS011;45933;51.336;12.612;2023-12-29T11:50:03;2.28;;;1.13;;
60060;SDS011;45933;51.336;12.612;2023-12-29T11:52:38;2.70;;;1.13;;
60060;SDS011;45933;51.336;12.612;2023-12-29T11:55:11;3.40;;;2.20;;
60060;SDS011;45933;51.336;12.612;2023-12-29T11:57:41;2.63;;;1.67;;
60060;SDS011;45933;51.336;12.612;2023-12-29T12:00:07;2.77;;;1.77;;
60060;SDS011;45933;51.336;12.612;2023-12-29T12:02:33;2.03;;;1.40;;
60060;SDS011;45933;51.336;12.612;2023-12-29T12:04:58;4.27;;;1.60;;
60060;SDS011;45933;51.336;12.612;2023-12-29T12:12:58;2.70;;;2.27;;
60060;SDS011;45933;51.336;12.612;2023-12-29T12:17:53;3.40;;;1.60;;
60060;SDS011;45933;51.336;12.612;2023-12-29T12:20:19;2.53;;;1.43;;
60060;SDS011;45933;51.336;12.612;2023-12-29T12:22:44;3.53;;;1.30;;
60060;SDS011;45933;51.336;12.612;2023-12-29T12:25:15;4.87;;;1.30;;
60060;SDS011;45933;51.336;12.612;2023-12-29T12:27:41;3.13;;;1.30;;
60060;SDS011;45933;51.336;12.612;2023-12-29T12:30:07;1.60;;;1.50;;
60060;SDS011;45933;51.336;12.612;2023-12-29T12:32:34;4.63;;;3.63;;
60060;SDS011;45933;51.336;12.612;2023-12-29T12:35:00;5.70;;;2.77;;
60060;SDS011;45933;51.336;12.612;2023-12-29T12:37:26;13.37;;;4.40;;
60060;SDS011;45933;51.336;12.612;2023-12-29T12:39:53;6.20;;;2.57;;
60060;SDS011;45933;51.336;12.612;2023-12-29T12:42:19;8.87;;;2.40;;
60060;SDS011;45933;51.336;12.612;2023-12-29T12:47:42;13.40;;;4.47;;
60060;SDS011;45933;51.336;12.612;2023-12-29T12:50:10;8.70;;;3.03;;
60060;SDS011;45933;51.336;12.612;2023-12-29T12:52:37;6.83;;;1.80;;
60060;SDS011;45933;51.336;12.612;2023-12-29T12:55:03;5.20;;;2.30;;
60060;SDS011;45933;51.336;12.612;2023-12-29T12:57:29;6.33;;;2.50;;
60060;SDS011;45933;51.336;12.612;2023-12-29T12:59:55;5.27;;;2.70;;
60060;SDS011;45933;51.336;12.612;2023-12-29T13:02:21;7.00;;;2.87;;
60060;SDS011;45933;51.336;12.612;2023-12-29T13:04:50;18.77;;;6.82;;
60060;SDS011;45933;51.336;12.612;2023-12-29T13:07:17;16.33;;;7.27;;
60060;SDS011;45933;51.336;12.612;2023-12-29T13:09:43;17.23;;;7.57;;
60060;SDS011;45933;51.336;12.612;2023-12-29T13:12:15;8.80;;;4.10;;
60060;SDS011;45933;51.336;12.612;2023-12-29T13:14:43;4.22;;;2.60;;
60060;SDS011;45933;51.336;12.612;2023-12-29T13:17:11;1.40;;;1.30;;
60060;SDS011;45933;51.336;12.612;2023-12-29T13:19:43;3.70;;;1.83;;
60060;SDS011;45933;51.336;12.612;2023-12-29T13:22:12;1.43;;;1.20;;
60060;SDS011;45933;51.336;12.612;2023-12-29T13:24:43;1.87;;;1.10;;
60060;SDS011;45933;51.336;12.612;2023-12-29T13:27:11;2.67;;;1.10;;
60060;SDS011;45933;51.336;12.612;2023-12-29T13:29:37;2.13;;;1.20;;
60060;SDS011;45933;51.336;12.612;2023-12-29T13:34:48;2.87;;;1.53;;
60060;SDS011;45933;51.336;12.612;2023-12-29T13:42:44;3.10;;;1.47;;
60060;SDS011;45933;51.336;12.612;2023-12-29T13:45:12;2.60;;;1.50;;
60060;SDS011;45933;51.336;12.612;2023-12-29T13:47:39;3.75;;;1.60;;
60060;SDS011;45933;51.336;12.612;2023-12-29T13:50:05;4.40;;;1.60;;
60060;SDS011;45933;51.336;12.612;2023-12-29T13:52:35;3.50;;;1.40;;
60060;SDS011;45933;51.336;12.612;2023-12-29T13:55:04;3.22;;;1.40;;
60060;SDS011;45933;51.336;12.612;2023-12-29T13:57:34;2.08;;;1.17;;
60060;SDS011;45933;51.336;12.612;2023-12-29T14:00:16;4.63;;;1.45;;
60060;SDS011;45933;51.336;12.612;2023-12-29T14:02:43;2.53;;;1.15;;
60060;SDS011;45933;51.336;12.612;2023-12-29T14:05:14;2.63;;;1.10;;
60060;SDS011;45933;51.336;12.612;2023-12-29T14:07:45;3.90;;;1.17;;
60060;SDS011;45933;51.336;12.612;2023-12-29T14:10:16;2.20;;;1.13;;
60060;SDS011;45933;51.336;12.612;2023-12-29T14:12:48;2.67;;;0.90;;
60060;SDS011;45933;51.336;12.612;2023-12-29T14:15:14;4.27;;;1.27;;
60060;SDS011;45933;51.336;12.612;2023-12-29T14:17:40;2.70;;;1.05;;
60060;SDS011;45933;51.336;12.612;2023-12-29T14:20:08;2.55;;;1.00;;
60060;SDS011;45933;51.336;12.612;2023-12-29T14:22:34;2.75;;;0.90;;
60060;SDS011;45933;51.336;12.612;2023-12-29T14:25:03;4.57;;;1.00;;
60060;SDS011;45933;51.336;12.612;2023-12-29T14:27:30;4.07;;;1.05;;
60060;SDS011;45933;51.336;12.612;2023-12-29T14:29:56;2.93;;;1.00;;
60060;SDS011;45933;51.336;12.612;2023-12-29T14:32:25;3.83;;;1.00;;
60060;SDS011;45933;51.336;12.612;2023-12-29T14:34:50;1.90;;;0.93;;
60060;SDS011;45933;51.336;12.612;2023-12-29T14:37:18;1.57;;;0.90;;
60060;SDS011;45933;51.336;12.612;2023-12-29T14:39:54;3.50;;;1.40;;
60060;SDS011;45933;51.336;12.612;2023-12-29T14:42:20;3.30;;;1.40;;
60060;SDS011;45933;51.336;12.612;2023-12-29T14:44:46;3.37;;;1.10;;
60060;SDS011;45933;51.336;12.612;2023-12-29T14:47:12;2.93;;;1.03;;
60060;SDS011;45933;51.336;12.612;2023-12-29T14:49:40;3.70;;;1.50;;
60060;SDS011;45933;51.336;12.612;2023-12-29T14:52:06;2.17;;;1.20;;
60060;SDS011;45933;51.336;12.612;2023-12-29T14:54:31;1.17;;;0.90;;
60060;SDS011;45933;51.336;12.612;2023-12-29T14:56:57;2.00;;;0.90;;